createdAt,value
2023-01-24T00:00:52.869Z,53.30
2023-01-24T00:03:20.054Z,53.80
2023-01-24T00:05:48.421Z,53.40
2023-01-24T00:08:19.533Z,52.80
2023-01-24T00:10:47.032Z,54.00
2023-01-24T00:13:14.997Z,53.90
2023-01-24T00:15:42.197Z,53.50
2023-01-24T00:18:09.862Z,53.90
2023-01-24T00:20:37.059Z,53.60
2023-01-24T00:23:04.000Z,54.10
2023-01-24T00:25:31.274Z,54.10
2023-01-24T00:27:58.258Z,53.60
2023-01-24T00:30:26.365Z,54.10
2023-01-24T00:32:53.333Z,53.80
2023-01-24T00:35:20.529Z,53.60
2023-01-24T00:37:47.736Z,53.70
2023-01-24T00:40:14.726Z,53.10
2023-01-24T00:42:42.113Z,53.50
2023-01-24T00:45:09.330Z,53.40
2023-01-24T00:47:36.443Z,53.30
2023-01-24T00:50:03.495Z,53.50
2023-01-24T00:52:30.880Z,53.20
2023-01-24T00:54:58.012Z,53.30
2023-01-24T00:57:25.664Z,53.30
2023-01-24T00:59:52.564Z,53.20
2023-01-24T01:02:19.670Z,53.20
2023-01-24T01:04:47.284Z,53.20
2023-01-24T01:07:14.978Z,53.40
2023-01-24T01:09:42.992Z,53.60
2023-01-24T01:12:10.364Z,53.40
2023-01-24T01:14:37.276Z,53.40
2023-01-24T01:17:04.227Z,53.30
2023-01-24T01:19:31.149Z,53.20
2023-01-24T01:21:58.368Z,54.20
2023-01-24T01:24:26.161Z,54.30
2023-01-24T01:26:53.119Z,53.60
2023-01-24T01:29:20.101Z,53.60
2023-01-24T01:31:47.119Z,53.50
2023-01-24T01:34:14.305Z,53.90
2023-01-24T01:36:41.255Z,53.60
2023-01-24T01:39:09.014Z,53.60
2023-01-24T01:41:36.142Z,53.60
2023-01-24T01:44:41.568Z,54.20
2023-01-24T01:47:29.414Z,54.40
2023-01-24T01:50:20.119Z,55.20
2023-01-24T01:52:47.529Z,54.60
2023-01-24T01:55:17.689Z,54.20
2023-01-24T01:57:46.484Z,54.10
2023-01-24T02:00:22.335Z,53.90
2023-01-24T02:03:16.132Z,54.20
2023-01-24T02:05:43.616Z,53.50
2023-01-24T02:08:13.564Z,54.70
2023-01-24T02:11:00.468Z,54.50
2023-01-24T02:13:27.980Z,55.00
2023-01-24T02:16:04.300Z,54.40
2023-01-24T02:18:33.191Z,54.10
2023-01-24T02:21:00.302Z,54.20
2023-01-24T02:24:03.591Z,54.00
2023-01-24T02:26:31.239Z,53.90
2023-01-24T02:29:06.343Z,54.10
2023-01-24T02:31:56.133Z,53.60
2023-01-24T02:34:24.723Z,54.70
2023-01-24T02:36:58.209Z,55.00
2023-01-24T02:39:33.550Z,54.70
2023-01-24T02:42:27.504Z,54.50
2023-01-24T02:45:09.710Z,54.50
2023-01-24T02:47:46.398Z,54.70
2023-01-24T02:50:13.906Z,54.50
2023-01-24T02:52:59.537Z,54.70
2023-01-24T02:55:27.477Z,54.30
2023-01-24T02:58:08.613Z,54.00
2023-01-24T03:00:40.709Z,53.70
2023-01-24T03:03:09.774Z,54.20
2023-01-24T03:05:55.969Z,54.20
2023-01-24T03:08:27.724Z,54.50
2023-01-24T03:10:57.326Z,54.40
2023-01-24T03:13:44.867Z,55.80
2023-01-24T03:16:33.091Z,54.20
2023-01-24T03:19:19.059Z,54.30
2023-01-24T03:22:05.365Z,55.20
2023-01-24T03:24:50.768Z,55.30
2023-01-24T03:27:36.736Z,55.00
2023-01-24T03:30:23.459Z,55.20
2023-01-24T03:33:08.942Z,55.20
2023-01-24T03:35:36.690Z,55.40
2023-01-24T03:38:22.356Z,55.30
2023-01-24T03:40:53.595Z,55.90
2023-01-24T03:43:20.959Z,55.40
2023-01-24T03:45:53.501Z,55.30
2023-01-24T03:48:37.480Z,56.30
2023-01-24T03:51:24.885Z,55.50
2023-01-24T03:53:52.238Z,55.30
2023-01-24T03:56:21.124Z,54.80
2023-01-24T03:58:54.729Z,54.50
2023-01-24T04:01:23.757Z,54.60
2023-01-24T04:03:59.767Z,55.30
2023-01-24T04:06:26.895Z,55.10
2023-01-24T04:08:53.871Z,54.80
2023-01-24T04:11:23.118Z,54.50
2023-01-24T04:13:55.091Z,54.40
2023-01-24T04:16:22.152Z,54.40
2023-01-24T04:19:00.378Z,54.50
2023-01-24T04:21:27.876Z,54.50
2023-01-24T04:23:55.234Z,54.60
2023-01-24T04:26:22.740Z,54.10
2023-01-24T04:28:51.662Z,55.90
2023-01-24T04:31:19.133Z,55.50
2023-01-24T04:34:06.414Z,56.00
2023-01-24T04:36:35.793Z,55.80
2023-01-24T04:39:04.576Z,55.50
2023-01-24T04:41:38.812Z,55.90
2023-01-24T04:44:05.897Z,55.70
2023-01-24T04:46:33.022Z,55.70
2023-01-24T04:49:00.804Z,54.80
2023-01-24T04:51:37.732Z,55.00
2023-01-24T04:54:12.670Z,54.80
2023-01-24T04:56:40.716Z,55.00
2023-01-24T04:59:07.875Z,55.50
2023-01-24T05:01:36.266Z,55.40
2023-01-24T05:04:10.491Z,54.90
2023-01-24T05:06:37.830Z,55.20
2023-01-24T05:09:05.112Z,55.20
2023-01-24T05:11:51.803Z,55.50
2023-01-24T05:14:18.949Z,55.20
2023-01-24T05:16:46.157Z,54.60
2023-01-24T05:19:13.235Z,54.60
2023-01-24T05:21:40.320Z,54.20
2023-01-24T05:24:09.232Z,54.00
2023-01-24T05:26:36.487Z,54.10
2023-01-24T05:29:03.461Z,54.10
2023-01-24T05:31:31.360Z,54.00
2023-01-24T05:33:59.342Z,54.00
2023-01-24T05:36:26.487Z,53.70
2023-01-24T05:38:54.431Z,54.40
2023-01-24T05:41:22.126Z,54.20
2023-01-24T05:43:52.545Z,54.40
2023-01-24T05:46:24.554Z,54.10
2023-01-24T05:49:11.872Z,54.80
2023-01-24T05:51:39.350Z,55.20
2023-01-24T05:54:06.794Z,55.10
2023-01-24T05:56:56.941Z,55.30
2023-01-24T05:59:26.467Z,55.10
2023-01-24T06:01:53.525Z,55.10
2023-01-24T06:04:21.645Z,54.80
2023-01-24T06:06:49.876Z,54.80
2023-01-24T06:09:16.867Z,54.70
2023-01-24T06:11:44.692Z,55.00
2023-01-24T06:14:16.828Z,55.40
2023-01-24T06:16:45.783Z,55.90
2023-01-24T06:19:15.454Z,56.20
2023-01-24T06:21:52.988Z,56.20
2023-01-24T06:24:27.918Z,56.50
2023-01-24T06:27:02.168Z,56.70
2023-01-24T06:29:29.514Z,57.40
2023-01-24T06:32:42.068Z,58.30
2023-01-24T06:35:17.640Z,58.60
2023-01-24T06:37:52.625Z,58.10
2023-01-24T06:40:23.931Z,58.60
2023-01-24T06:42:52.212Z,58.60
2023-01-24T06:45:19.739Z,58.60
2023-01-24T06:47:46.899Z,57.90
2023-01-24T06:50:22.167Z,58.00
2023-01-24T06:52:50.959Z,58.80
2023-01-24T06:55:18.247Z,58.90
2023-01-24T06:57:47.643Z,58.70
2023-01-24T07:00:15.441Z,58.90
2023-01-24T07:02:42.432Z,58.40
2023-01-24T07:05:09.747Z,58.70
2023-01-24T07:07:36.652Z,59.50
2023-01-24T07:10:04.133Z,59.10
2023-01-24T07:12:31.068Z,59.70
2023-01-24T07:14:57.979Z,58.90
2023-01-24T07:17:25.263Z,59.20
2023-01-24T07:19:52.370Z,60.30
2023-01-24T07:22:19.621Z,59.80
2023-01-24T07:24:48.136Z,59.80
2023-01-24T07:27:15.577Z,59.10
2023-01-24T07:29:42.470Z,59.10
2023-01-24T07:32:11.213Z,59.10
2023-01-24T07:34:38.879Z,58.10
2023-01-24T07:37:08.017Z,57.80
2023-01-24T07:39:35.152Z,58.30
2023-01-24T07:42:02.190Z,58.20
2023-01-24T07:44:29.079Z,58.20
2023-01-24T07:46:56.228Z,57.30
2023-01-24T07:49:23.236Z,56.90
2023-01-24T07:51:50.303Z,57.00
2023-01-24T07:54:19.917Z,57.10
2023-01-24T07:56:47.453Z,56.80
2023-01-24T07:59:15.103Z,57.00
2023-01-24T08:01:42.235Z,56.70
2023-01-24T08:04:09.892Z,55.80
2023-01-24T08:06:37.126Z,56.40
2023-01-24T08:09:04.153Z,56.20
2023-01-24T08:11:31.062Z,55.80
2023-01-24T08:13:58.090Z,55.70
2023-01-24T08:16:27.005Z,55.70
2023-01-24T08:18:54.210Z,54.90
2023-01-24T08:21:21.186Z,55.80
2023-01-24T08:23:48.226Z,56.50
2023-01-24T08:26:15.210Z,56.30
2023-01-24T08:28:42.152Z,56.30
2023-01-24T08:31:09.140Z,55.90
2023-01-24T08:33:38.976Z,56.00
2023-01-24T08:36:06.637Z,55.60
2023-01-24T08:38:33.617Z,56.00
2023-01-24T08:41:04.099Z,55.80
2023-01-24T08:43:31.430Z,55.40
2023-01-24T08:45:58.671Z,55.20
2023-01-24T08:48:25.748Z,56.20
2023-01-24T08:50:52.686Z,55.80
2023-01-24T08:53:19.790Z,56.40
2023-01-24T08:55:50.513Z,56.30
2023-01-24T08:58:17.705Z,55.80
2023-01-24T09:00:44.680Z,55.80
2023-01-24T09:03:13.857Z,55.40
2023-01-24T09:05:40.874Z,55.50
2023-01-24T09:08:08.038Z,55.30
2023-01-24T09:10:35.400Z,55.10
2023-01-24T09:13:03.757Z,54.70
2023-01-24T09:15:31.653Z,55.70
2023-01-24T09:18:03.411Z,55.50
2023-01-24T09:20:30.357Z,55.80
2023-01-24T09:22:57.358Z,55.20
2023-01-24T09:25:24.754Z,55.10
2023-01-24T09:27:55.888Z,55.70
2023-01-24T09:30:24.337Z,54.80
2023-01-24T09:32:51.774Z,55.10
2023-01-24T09:35:18.800Z,55.50
2023-01-24T09:37:46.063Z,55.70
2023-01-24T09:40:21.774Z,56.20
2023-01-24T09:43:30.695Z,55.80
2023-01-24T09:46:21.688Z,55.90
2023-01-24T09:48:53.944Z,56.60
2023-01-24T09:51:25.674Z,55.90
2023-01-24T09:53:56.130Z,55.40
2023-01-24T09:56:31.589Z,55.80
2023-01-24T09:59:16.819Z,55.40
2023-01-24T10:01:44.251Z,54.90
2023-01-24T10:04:30.880Z,55.20
2023-01-24T10:07:06.788Z,55.40
2023-01-24T10:10:09.799Z,54.50
2023-01-24T10:12:46.915Z,55.20
2023-01-24T10:15:35.266Z,55.90
2023-01-24T10:18:35.919Z,55.20
2023-01-24T10:21:24.474Z,55.20
2023-01-24T10:23:58.694Z,55.10
2023-01-24T10:26:52.227Z,55.50
2023-01-24T10:29:22.635Z,54.80
2023-01-24T10:31:52.573Z,54.30
2023-01-24T10:34:42.981Z,54.70
2023-01-24T10:37:13.157Z,54.60
2023-01-24T10:39:40.129Z,54.50
2023-01-24T10:42:20.385Z,53.60
2023-01-24T10:44:48.462Z,53.70
2023-01-24T10:47:27.688Z,53.10
2023-01-24T10:50:05.238Z,53.90
2023-01-24T10:52:33.137Z,53.50
2023-01-24T10:55:02.800Z,53.30
2023-01-24T10:57:38.569Z,53.70
2023-01-24T11:00:35.153Z,53.50
2023-01-24T11:03:05.690Z,53.40
2023-01-24T11:05:50.979Z,53.60
2023-01-24T11:08:22.120Z,52.80
2023-01-24T11:10:53.831Z,53.80
2023-01-24T11:13:44.860Z,54.70
2023-01-24T11:16:21.678Z,54.10
2023-01-24T11:19:00.742Z,53.90
2023-01-24T11:21:30.116Z,53.70
2023-01-24T11:24:16.418Z,53.30
2023-01-24T11:26:54.997Z,53.90
2023-01-24T11:29:23.109Z,53.70
2023-01-24T11:31:54.213Z,53.40
2023-01-24T11:34:36.004Z,53.40
2023-01-24T11:37:13.061Z,52.80
2023-01-24T11:39:57.928Z,53.00
2023-01-24T11:42:58.705Z,52.70
2023-01-24T11:45:50.312Z,52.90
2023-01-24T11:48:20.971Z,53.00
2023-01-24T11:51:12.836Z,53.90
2023-01-24T11:54:13.713Z,53.90
2023-01-24T11:56:47.134Z,54.20
2023-01-24T11:59:34.944Z,53.90
2023-01-24T12:02:21.720Z,54.20
2023-01-24T12:04:58.770Z,53.70
2023-01-24T12:07:44.184Z,53.20
2023-01-24T12:10:23.031Z,53.60
2023-01-24T12:13:16.244Z,53.00
2023-01-24T12:16:26.972Z,53.10
2023-01-24T12:19:13.480Z,53.70
2023-01-24T12:21:40.419Z,53.70
2023-01-24T12:24:19.727Z,53.20
2023-01-24T12:26:51.756Z,53.50
2023-01-24T12:29:37.185Z,54.70
2023-01-24T12:32:16.733Z,54.30
2023-01-24T12:35:05.114Z,54.00
2023-01-24T12:37:49.891Z,54.40
2023-01-24T12:40:23.449Z,54.20
2023-01-24T12:42:59.181Z,53.90
2023-01-24T12:45:46.580Z,53.60
2023-01-24T12:48:38.464Z,54.10
2023-01-24T12:51:13.198Z,53.90
2023-01-24T12:53:50.978Z,53.60
2023-01-24T12:56:33.330Z,53.50
2023-01-24T12:59:00.713Z,53.50
2023-01-24T13:01:27.589Z,54.00
2023-01-24T13:04:12.637Z,54.20
2023-01-24T13:06:51.490Z,53.50
2023-01-24T13:09:27.267Z,54.00
2023-01-24T13:11:57.003Z,53.80
2023-01-24T13:14:39.063Z,54.40
2023-01-24T13:17:12.847Z,53.60
2023-01-24T13:20:08.874Z,53.50
2023-01-24T13:23:12.905Z,53.40
2023-01-24T13:25:54.877Z,53.40
2023-01-24T13:28:36.635Z,53.70
2023-01-24T13:31:21.365Z,53.30
2023-01-24T13:34:05.555Z,54.10
2023-01-24T13:36:36.078Z,53.30
2023-01-24T13:39:09.445Z,53.30
2023-01-24T13:41:40.001Z,52.80
2023-01-24T13:44:25.254Z,53.80
2023-01-24T13:46:55.215Z,53.50
2023-01-24T13:49:38.000Z,53.80
2023-01-24T13:52:36.616Z,54.20
2023-01-24T13:55:23.835Z,53.80
2023-01-24T13:58:10.908Z,53.80
2023-01-24T14:00:57.692Z,54.40
2023-01-24T14:03:29.576Z,53.90
2023-01-24T14:06:14.479Z,54.10
2023-01-24T14:08:45.624Z,53.70
2023-01-24T14:11:25.971Z,53.80
2023-01-24T14:14:23.196Z,53.90
2023-01-24T14:16:50.202Z,53.70
2023-01-24T14:19:32.370Z,53.40
2023-01-24T14:22:19.533Z,54.10
2023-01-24T14:25:26.945Z,53.90
2023-01-24T14:28:01.909Z,53.70
2023-01-24T14:30:40.096Z,53.70
2023-01-24T14:33:44.894Z,53.50
2023-01-24T14:36:41.345Z,53.40
2023-01-24T14:39:25.376Z,54.10
2023-01-24T14:41:56.276Z,53.50
2023-01-24T14:44:25.089Z,53.40
2023-01-24T14:47:00.647Z,53.20
2023-01-24T14:49:44.586Z,52.40
2023-01-24T14:52:22.553Z,52.90
2023-01-24T14:55:01.521Z,53.10
2023-01-24T14:57:33.520Z,53.20
2023-01-24T15:00:08.888Z,52.80
2023-01-24T15:02:37.164Z,53.20
2023-01-24T15:05:23.251Z,52.80
2023-01-24T15:07:50.498Z,53.40
2023-01-24T15:10:22.429Z,53.00
2023-01-24T15:12:57.003Z,52.80
2023-01-24T15:15:25.428Z,53.20
2023-01-24T15:17:59.971Z,54.10
2023-01-24T15:20:29.408Z,52.90
2023-01-24T15:22:59.674Z,53.00
2023-01-24T15:25:32.468Z,53.40
2023-01-24T15:28:19.607Z,54.00
2023-01-24T15:31:00.376Z,53.60
2023-01-24T15:33:41.824Z,53.10
2023-01-24T15:36:38.333Z,53.30
2023-01-24T15:39:14.494Z,52.90
2023-01-24T15:42:01.216Z,52.90
2023-01-24T15:44:28.820Z,53.10
2023-01-24T15:47:21.353Z,52.80
2023-01-24T15:50:02.762Z,52.40
2023-01-24T15:52:29.937Z,52.30
2023-01-24T15:55:00.761Z,52.00
2023-01-24T15:57:33.124Z,52.50
2023-01-24T16:00:02.313Z,52.40
2023-01-24T16:02:36.709Z,52.60
2023-01-24T16:05:13.193Z,52.60
2023-01-24T16:07:40.143Z,52.90
2023-01-24T16:10:07.588Z,52.80
2023-01-24T16:12:35.581Z,52.80
2023-01-24T16:15:09.198Z,52.30
2023-01-24T16:17:37.429Z,52.50
2023-01-24T16:20:11.844Z,52.50
2023-01-24T16:22:39.639Z,52.70
2023-01-24T16:25:11.244Z,52.60
2023-01-24T16:27:41.782Z,52.50
2023-01-24T16:30:28.059Z,52.00
2023-01-24T16:32:56.048Z,52.30
2023-01-24T16:35:23.635Z,52.20
2023-01-24T16:37:50.730Z,52.40
2023-01-24T16:40:18.945Z,52.50
2023-01-24T16:42:47.895Z,52.60
2023-01-24T16:45:17.609Z,52.80
2023-01-24T16:47:45.048Z,52.40
2023-01-24T16:50:13.307Z,52.20
2023-01-24T16:52:40.756Z,52.50
2023-01-24T16:55:09.496Z,52.40
2023-01-24T16:57:36.496Z,52.60
2023-01-24T17:00:07.773Z,53.00
2023-01-24T17:02:35.076Z,53.10
2023-01-24T17:05:04.429Z,53.10
2023-01-24T17:07:31.638Z,53.30
2023-01-24T17:09:58.554Z,53.60
2023-01-24T17:12:25.466Z,53.60
2023-01-24T17:14:52.437Z,56.10
2023-01-24T17:17:19.459Z,55.30
2023-01-24T17:19:46.896Z,52.50
2023-01-24T17:22:14.234Z,53.90
2023-01-24T17:24:41.235Z,55.00
2023-01-24T17:27:08.217Z,54.90
2023-01-24T17:29:35.161Z,55.60
2023-01-24T17:32:02.415Z,54.40
2023-01-24T17:34:29.747Z,55.10
2023-01-24T17:36:56.694Z,55.40
2023-01-24T17:39:23.666Z,54.10
2023-01-24T17:41:51.280Z,54.40
2023-01-24T17:44:18.546Z,55.10
2023-01-24T17:46:46.109Z,54.50
2023-01-24T17:49:13.367Z,55.00
2023-01-24T17:51:42.488Z,55.30
2023-01-24T17:54:12.728Z,55.90
2023-01-24T17:56:40.287Z,56.10
2023-01-24T17:59:07.259Z,56.50
2023-01-24T18:01:34.418Z,56.30
2023-01-24T18:04:01.952Z,54.40
2023-01-24T18:06:29.111Z,55.00
2023-01-24T18:08:56.153Z,55.30
2023-01-24T18:11:23.193Z,55.50
2023-01-24T18:13:50.210Z,56.00
2023-01-24T18:16:20.885Z,56.40
2023-01-24T18:18:49.129Z,56.40
2023-01-24T18:21:20.002Z,56.30
2023-01-24T18:23:51.616Z,56.70
2023-01-24T18:26:19.019Z,55.70
2023-01-24T18:28:46.238Z,56.40
2023-01-24T18:31:14.180Z,56.60
2023-01-24T18:33:41.315Z,56.40
2023-01-24T18:36:24.744Z,56.60
2023-01-24T18:38:52.811Z,56.50
2023-01-24T18:41:20.305Z,56.20
2023-01-24T18:43:47.584Z,55.80
2023-01-24T18:46:14.948Z,55.60
2023-01-24T18:48:43.977Z,55.40
2023-01-24T18:51:16.383Z,55.10
2023-01-24T18:53:44.095Z,55.40
2023-01-24T18:56:11.805Z,55.90
2023-01-24T18:58:39.812Z,56.00
2023-01-24T19:03:42.327Z,55.40
2023-01-24T19:06:10.748Z,55.50
2023-01-24T19:08:48.700Z,54.90
2023-01-24T19:11:24.352Z,54.90
2023-01-24T19:13:52.599Z,55.30
2023-01-24T19:16:19.577Z,55.10
2023-01-24T19:18:47.335Z,55.60
2023-01-24T19:21:18.038Z,55.40
2023-01-24T19:23:47.965Z,55.70
2023-01-24T19:26:17.681Z,55.40
2023-01-24T19:28:44.610Z,55.60
2023-01-24T19:31:12.443Z,55.50
2023-01-24T19:33:39.552Z,55.30
2023-01-24T19:36:08.552Z,55.20
2023-01-24T19:38:36.383Z,55.30
2023-01-24T19:41:04.886Z,55.10
2023-01-24T19:43:33.308Z,55.10
2023-01-24T19:46:10.514Z,55.10
2023-01-24T19:48:39.658Z,55.50
2023-01-24T19:51:09.158Z,55.70
2023-01-24T19:53:36.959Z,55.50
2023-01-24T19:56:06.343Z,55.90
2023-01-24T19:58:34.007Z,55.80
2023-01-24T20:01:08.024Z,56.10
2023-01-24T20:03:37.391Z,56.20
2023-01-24T20:06:12.841Z,56.30
2023-01-24T20:08:45.271Z,56.40
2023-01-24T20:11:13.068Z,56.30
2023-01-24T20:13:40.744Z,56.40
2023-01-24T20:16:19.200Z,56.30
2023-01-24T20:18:57.286Z,55.50
2023-01-24T20:21:26.437Z,55.20
2023-01-24T20:23:55.121Z,55.00
2023-01-24T20:26:22.595Z,55.10
2023-01-24T20:28:49.987Z,55.10
2023-01-24T20:31:17.166Z,54.90
2023-01-24T20:33:44.211Z,55.50
2023-01-24T20:36:12.947Z,55.80
2023-01-24T20:38:41.133Z,55.50
2023-01-24T20:41:16.336Z,55.60
2023-01-24T20:43:44.485Z,55.30
2023-01-24T20:46:22.742Z,55.80
2023-01-24T20:48:52.007Z,55.50
2023-01-24T20:51:19.678Z,55.40
2023-01-24T20:53:47.073Z,55.50
2023-01-24T20:56:18.337Z,55.60
2023-01-24T20:58:45.416Z,55.80
2023-01-24T21:01:16.749Z,57.10
2023-01-24T21:03:44.186Z,57.10
2023-01-24T21:06:14.275Z,57.40
2023-01-24T21:08:42.857Z,56.90
2023-01-24T21:11:18.456Z,57.00
2023-01-24T21:13:51.073Z,57.60
2023-01-24T21:16:18.344Z,57.00
2023-01-24T21:18:51.043Z,56.90
2023-01-24T21:21:19.531Z,56.50
2023-01-24T21:23:47.233Z,56.20
2023-01-24T21:26:16.535Z,56.50
2023-01-24T21:28:49.779Z,56.00
2023-01-24T21:31:20.036Z,56.80
2023-01-24T21:33:49.100Z,56.90
2023-01-24T21:36:18.828Z,56.60
2023-01-24T21:38:46.759Z,55.50
2023-01-24T21:41:40.241Z,54.90
2023-01-24T21:44:08.515Z,54.20
2023-01-24T21:46:36.303Z,52.00
2023-01-24T21:49:05.994Z,53.00
2023-01-24T21:51:50.656Z,53.60
2023-01-24T21:54:23.286Z,53.70
2023-01-24T21:57:28.152Z,54.10
2023-01-24T21:59:58.278Z,53.80
2023-01-24T22:02:30.564Z,54.20
2023-01-24T22:04:58.700Z,55.30
2023-01-24T22:07:28.043Z,55.20
2023-01-24T22:09:57.940Z,55.30
2023-01-24T22:12:25.214Z,55.50
2023-01-24T22:14:52.469Z,55.60
2023-01-24T22:17:21.733Z,55.00
2023-01-24T22:19:57.129Z,55.10
2023-01-24T22:22:43.819Z,55.00
2023-01-24T22:25:13.648Z,55.50
2023-01-24T22:27:41.255Z,55.70
2023-01-24T22:30:19.395Z,56.00
2023-01-24T22:32:47.312Z,55.20
2023-01-24T22:35:23.208Z,55.40
2023-01-24T22:37:58.998Z,55.40
2023-01-24T22:40:27.422Z,55.60
2023-01-24T22:42:57.192Z,55.10
2023-01-24T22:45:26.069Z,55.20
2023-01-24T22:47:53.089Z,55.50
2023-01-24T22:50:20.755Z,55.00
2023-01-24T22:52:48.632Z,55.50
2023-01-24T22:55:16.597Z,55.30
2023-01-24T22:57:43.580Z,55.50
2023-01-24T23:00:12.145Z,55.30
2023-01-24T23:02:39.375Z,55.40
2023-01-24T23:05:06.971Z,55.30
2023-01-24T23:07:34.409Z,55.30
2023-01-24T23:10:01.376Z,54.80
2023-01-24T23:12:46.881Z,54.70
2023-01-24T23:15:32.936Z,54.60
2023-01-24T23:18:04.077Z,54.50
2023-01-24T23:20:49.471Z,54.50
2023-01-24T23:23:16.376Z,54.60
2023-01-24T23:25:43.424Z,54.70
2023-01-24T23:28:10.552Z,54.20
2023-01-24T23:30:54.820Z,54.70
2023-01-24T23:33:21.718Z,54.30
2023-01-24T23:35:48.719Z,54.20
2023-01-24T23:38:15.732Z,54.10
2023-01-24T23:40:42.679Z,54.10
2023-01-24T23:43:12.555Z,54.30
2023-01-24T23:45:42.986Z,54.30
2023-01-24T23:48:10.766Z,54.50
2023-01-24T23:50:38.088Z,54.30
2023-01-24T23:53:05.225Z,54.40
2023-01-24T23:55:32.964Z,54.10
2023-01-24T23:58:03.463Z,54.20
